Time,TemperatureF,DewpointF,PressureIn,WindDirection,WindDirectionDegrees,WindSpeedMPH,WindSpeedGustMPH,Humidity,HourlyPrecipIn,Conditions,Clouds,dailyrainin,SoftwareType,DateUTC
2013-07-21 00:11:00,74.9,74.0,29.84,SSE,155,2.0,5.0,97,0.14,,---,0.14,VWS V14.01,2013-07-21 05:11:00,
2013-07-21 00:26:00,74.4,73.2,29.83,SSE,155,0.0,5.0,96,0.19,,---,0.19,VWS V14.01,2013-07-21 05:26:00,
2013-07-21 00:41:00,74.1,73.2,29.83,SSE,155,0.0,2.0,97,0.20,,---,0.20,VWS V14.01,2013-07-21 05:41:00,
2013-07-21 00:56:00,74.0,73.1,29.82,SSE,155,0.0,1.0,97,0.20,,---,0.20,VWS V14.01,2013-07-21 05:56:00,
2013-07-21 01:11:00,74.0,73.1,29.82,SSE,155,0.0,0.0,97,0.20,,---,0.20,VWS V14.01,2013-07-21 06:11:00,
2013-07-21 01:25:00,74.2,73.3,29.81,SSE,155,0.0,0.0,97,0.07,,---,0.21,VWS V14.01,2013-07-21 06:25:00,
2013-07-21 01:41:00,74.0,73.1,29.81,SSE,155,0.0,0.0,97,0.02,,---,0.21,VWS V14.01,2013-07-21 06:41:00,
2013-07-21 01:56:00,73.7,72.8,29.81,SSE,155,0.0,0.0,97,0.01,,---,0.21,VWS V14.01,2013-07-21 06:56:00,
2013-07-21 02:11:00,73.6,72.7,29.81,SSE,155,0.0,0.0,97,0.01,,---,0.21,VWS V14.01,2013-07-21 07:11:00,
2013-07-21 02:26:00,74.1,73.2,29.81,SSE,155,0.0,0.0,97,0.01,,---,0.21,VWS V14.01,2013-07-21 07:26:00,
2013-07-21 02:41:00,74.0,73.1,29.81,South,188,4.0,6.0,97,0.00,,---,0.21,VWS V14.01,2013-07-21 07:41:00,
2013-07-21 02:56:00,74.0,73.1,29.82,South,189,5.0,11.0,97,0.00,,---,0.21,VWS V14.01,2013-07-21 07:56:00,
2013-07-21 03:11:00,73.8,72.9,29.81,SSW,209,1.0,10.0,97,0.00,,---,0.21,VWS V14.01,2013-07-21 08:11:00,
2013-07-21 03:26:00,73.5,72.6,29.81,SW,234,0.0,6.0,97,0.00,,---,0.21,VWS V14.01,2013-07-21 08:26:00,
2013-07-21 03:41:00,73.3,72.4,29.80,SW,234,1.0,4.0,97,0.00,,---,0.21,VWS V14.01,2013-07-21 08:41:00,
2013-07-21 03:56:00,73.0,72.1,29.79,SW,234,0.0,5.0,97,0.00,,---,0.21,VWS V14.01,2013-07-21 08:56:00,
2013-07-21 04:11:00,72.8,71.9,29.79,SW,234,3.0,3.0,97,0.00,,---,0.21,VWS V14.01,2013-07-21 09:11:00,
2013-07-21 04:26:00,72.6,71.7,29.78,SW,234,0.0,4.0,97,0.00,,---,0.21,VWS V14.01,2013-07-21 09:26:00,
2013-07-21 04:41:00,72.2,71.3,29.78,SW,232,2.0,5.0,97,0.00,,---,0.21,VWS V14.01,2013-07-21 09:41:00,
2013-07-21 04:56:00,71.8,70.9,29.78,SSW,211,0.0,4.0,97,0.00,,---,0.21,VWS V14.01,2013-07-21 09:56:00,
2013-07-21 05:11:00,71.6,70.7,29.77,SSW,211,0.0,3.0,97,0.00,,---,0.21,VWS V14.01,2013-07-21 10:11:00,
2013-07-21 05:26:00,71.5,70.6,29.77,SSW,211,0.0,1.0,97,0.00,,---,0.21,VWS V14.01,2013-07-21 10:26:00,
2013-07-21 05:41:00,71.3,70.4,29.77,SSW,211,2.0,4.0,97,0.00,,---,0.21,VWS V14.01,2013-07-21 10:41:00,
2013-07-21 05:56:00,71.2,70.3,29.78,SSW,211,3.0,5.0,97,0.00,,---,0.21,VWS V14.01,2013-07-21 10:56:00,
2013-07-21 06:11:00,71.0,70.1,29.79,SW,226,0.0,7.0,97,0.00,,---,0.21,VWS V14.01,2013-07-21 11:11:00,
2013-07-21 06:26:00,71.0,70.1,29.80,SW,227,0.0,6.0,97,0.00,,---,0.21,VWS V14.01,2013-07-21 11:26:00,
2013-07-21 06:41:00,71.1,70.2,29.80,SW,227,0.0,3.0,97,0.00,,---,0.21,VWS V14.01,2013-07-21 11:41:00,
2013-07-21 06:56:00,71.2,70.3,29.80,SW,219,0.0,0.0,97,0.00,,---,0.21,VWS V14.01,2013-07-21 11:56:00,
2013-07-21 07:11:00,71.5,70.6,29.81,SW,236,1.0,4.0,97,0.00,,---,0.21,VWS V14.01,2013-07-21 12:11:00,
2013-07-21 07:26:00,71.6,70.4,29.81,SW,236,2.0,3.0,96,0.00,,---,0.21,VWS V14.01,2013-07-21 12:26:00,
2013-07-21 07:41:00,71.5,70.3,29.81,SW,236,0.0,3.0,96,0.00,,---,0.21,VWS V14.01,2013-07-21 12:41:00,
2013-07-21 07:56:00,71.4,70.2,29.80,SW,236,0.0,2.0,96,0.00,,---,0.21,VWS V14.01,2013-07-21 12:56:00,
2013-07-21 08:11:00,71.2,70.0,29.81,SW,216,1.0,5.0,96,0.01,,---,0.22,VWS V14.01,2013-07-21 13:11:00,
2013-07-21 08:26:00,71.3,70.1,29.81,SSW,199,0.0,5.0,96,0.01,,---,0.22,VWS V14.01,2013-07-21 13:26:00,
2013-07-21 08:41:00,71.6,70.4,29.81,SSW,198,1.0,4.0,96,0.01,,---,0.22,VWS V14.01,2013-07-21 13:41:00,
2013-07-21 08:56:00,72.6,71.7,29.82,South,175,2.0,8.0,97,0.01,,---,0.22,VWS V14.01,2013-07-21 13:56:00,
2013-07-21 09:11:00,73.7,72.2,29.82,South,191,1.0,9.0,95,0.01,,---,0.22,VWS V14.01,2013-07-21 14:11:00,
2013-07-21 09:26:00,74.3,71.8,29.82,SSW,202,9.0,9.0,92,0.00,,---,0.22,VWS V14.01,2013-07-21 14:26:00,
2013-07-21 09:41:00,74.9,71.4,29.82,SSW,195,4.0,9.0,89,0.00,,---,0.22,VWS V14.01,2013-07-21 14:41:00,
2013-07-21 09:56:00,75.6,71.8,29.82,South,186,4.0,10.0,88,0.00,,---,0.22,VWS V14.01,2013-07-21 14:56:00,
2013-07-21 10:11:00,75.9,71.4,29.82,SSW,194,3.0,9.0,86,0.00,,---,0.22,VWS V14.01,2013-07-21 15:11:00,
2013-07-21 10:26:00,76.0,71.9,29.83,SSE,165,4.0,7.0,87,0.00,,---,0.22,VWS V14.01,2013-07-21 15:26:00,
2013-07-21 10:41:00,76.4,71.9,29.83,South,171,4.0,8.0,86,0.00,,---,0.22,VWS V14.01,2013-07-21 15:41:00,
2013-07-21 10:56:00,76.8,71.2,29.83,SW,220,2.0,8.0,83,0.00,,---,0.22,VWS V14.01,2013-07-21 15:56:00,
2013-07-21 11:11:00,77.0,71.8,29.83,SSW,210,1.0,8.0,84,0.00,,---,0.22,VWS V14.01,2013-07-21 16:11:00,
2013-07-21 11:26:00,77.3,71.4,29.82,SSW,205,3.0,8.0,82,0.00,,---,0.22,VWS V14.01,2013-07-21 16:26:00,
2013-07-21 11:41:00,77.4,71.5,29.81,SSW,200,3.0,10.0,82,0.00,,---,0.22,VWS V14.01,2013-07-21 16:41:00,
2013-07-21 11:56:00,77.6,71.7,29.81,SSW,194,5.0,9.0,82,0.00,,---,0.22,VWS V14.01,2013-07-21 16:56:00,
2013-07-21 12:11:00,77.5,71.2,29.81,South,191,0.0,8.0,81,0.00,,---,0.22,VWS V14.01,2013-07-21 17:11:00,
2013-07-21 12:26:00,77.5,71.6,29.81,South,188,6.0,9.0,82,0.00,,---,0.22,VWS V14.01,2013-07-21 17:26:00,
2013-07-21 12:41:00,78.2,72.3,29.80,South,182,3.0,7.0,82,0.00,,---,0.22,VWS V14.01,2013-07-21 17:41:00,
2013-07-21 12:56:00,78.2,71.2,29.80,SSW,200,2.0,7.0,79,0.00,,---,0.22,VWS V14.01,2013-07-21 17:56:00,
2013-07-21 13:11:00,77.9,71.6,29.79,South,190,2.0,6.0,81,0.00,,---,0.22,VWS V14.01,2013-07-21 18:11:00,
2013-07-21 13:26:00,78.2,71.9,29.79,South,190,0.0,4.0,81,0.00,,---,0.22,VWS V14.01,2013-07-21 18:26:00,
2013-07-21 13:41:00,78.9,72.9,29.78,South,190,0.0,3.0,82,0.00,,---,0.22,VWS V14.01,2013-07-21 18:41:00,
2013-07-21 13:56:00,79.4,72.3,29.78,South,190,1.0,4.0,79,0.00,,---,0.22,VWS V14.01,2013-07-21 18:56:00,
2013-07-21 14:11:00,79.0,73.0,29.77,South,190,0.0,4.0,82,0.00,,---,0.22,VWS V14.01,2013-07-21 19:11:00,
2013-07-21 14:26:00,79.0,73.0,29.77,South,190,0.0,4.0,82,0.00,,---,0.22,VWS V14.01,2013-07-21 19:26:00,
2013-07-21 14:41:00,79.9,73.2,29.76,South,190,3.0,5.0,80,0.00,,---,0.22,VWS V14.01,2013-07-21 19:41:00,
2013-07-21 14:56:00,81.5,74.0,29.76,SW,215,0.0,6.0,78,0.00,,---,0.22,VWS V14.01,2013-07-21 19:56:00,
2013-07-21 15:11:00,82.4,73.7,29.76,SW,227,0.0,4.0,75,0.00,,---,0.22,VWS V14.01,2013-07-21 20:11:00,
2013-07-21 15:26:00,83.4,72.2,29.75,SSE,160,2.0,9.0,69,0.00,,---,0.22,VWS V14.01,2013-07-21 20:26:00,
2013-07-21 15:41:00,83.6,72.4,29.75,South,179,4.0,8.0,69,0.00,,---,0.22,VWS V14.01,2013-07-21 20:41:00,
2013-07-21 15:56:00,83.5,72.7,29.75,South,179,0.0,6.0,70,0.00,,---,0.22,VWS V14.01,2013-07-21 20:56:00,
2013-07-21 16:11:00,84.8,73.1,29.74,South,179,0.0,5.0,68,0.00,,---,0.22,VWS V14.01,2013-07-21 21:11:00,
2013-07-21 16:26:00,85.9,71.8,29.74,South,179,0.0,6.0,63,0.00,,---,0.22,VWS V14.01,2013-07-21 21:26:00,
2013-07-21 16:41:00,85.7,71.7,29.73,South,179,1.0,6.0,63,0.00,,---,0.22,VWS V14.01,2013-07-21 21:41:00,
2013-07-21 16:56:00,85.0,71.5,29.73,South,179,2.0,7.0,64,0.00,,---,0.22,VWS V14.01,2013-07-21 21:56:00,
2013-07-21 17:11:00,85.0,71.9,29.73,South,179,0.0,6.0,65,0.00,,---,0.22,VWS V14.01,2013-07-21 22:11:00,
2013-07-21 17:26:00,85.6,72.5,29.73,South,179,7.0,7.0,65,0.00,,---,0.22,VWS V14.01,2013-07-21 22:26:00,
2013-07-21 17:41:00,85.6,71.6,29.72,SE,132,0.0,7.0,63,0.00,,---,0.22,VWS V14.01,2013-07-21 22:41:00,
2013-07-21 17:56:00,85.7,71.2,29.72,ESE,115,5.0,7.0,62,0.00,,---,0.22,VWS V14.01,2013-07-21 22:56:00,
2013-07-21 18:11:00,85.6,71.1,29.72,ESE,112,4.0,5.0,62,0.00,,---,0.22,VWS V14.01,2013-07-21 23:11:00,
2013-07-21 18:26:00,85.3,70.3,29.72,ESE,107,5.0,7.0,61,0.00,,---,0.22,VWS V14.01,2013-07-21 23:26:00,
2013-07-21 18:41:00,85.2,70.2,29.72,ESE,108,2.0,6.0,61,0.00,,---,0.22,VWS V14.01,2013-07-21 23:41:00,
2013-07-21 18:56:00,85.0,70.1,29.73,ESE,108,0.0,6.0,61,0.00,,---,0.22,VWS V14.01,2013-07-21 23:56:00,
2013-07-21 19:11:00,84.5,70.5,29.72,ESE,108,1.0,5.0,63,0.00,,---,0.22,VWS V14.01,2013-07-22 00:11:00,
2013-07-21 19:26:00,84.3,70.8,29.72,ESE,108,0.0,5.0,64,0.00,,---,0.22,VWS V14.01,2013-07-22 00:26:00,
2013-07-21 19:41:00,83.7,70.7,29.72,ESE,108,0.0,6.0,65,0.00,,---,0.22,VWS V14.01,2013-07-22 00:41:00,
2013-07-21 19:56:00,83.5,71.4,29.73,ESE,108,0.0,1.0,67,0.00,,---,0.22,VWS V14.01,2013-07-22 00:56:00,
2013-07-21 20:11:00,82.9,70.8,29.73,ESE,108,0.0,2.0,67,0.00,,---,0.22,VWS V14.01,2013-07-22 01:11:00,
2013-07-21 20:26:00,81.9,71.6,29.73,NE,53,3.0,8.0,71,0.00,,---,0.22,VWS V14.01,2013-07-22 01:26:00,
2013-07-21 20:41:00,79.9,71.7,29.73,ENE,61,1.0,7.0,76,0.00,,---,0.22,VWS V14.01,2013-07-22 01:41:00,
2013-07-21 20:56:00,78.4,71.3,29.74,ENE,65,0.0,5.0,79,0.00,,---,0.22,VWS V14.01,2013-07-22 01:56:00,
2013-07-21 21:11:00,77.6,71.7,29.74,ENE,64,1.0,6.0,82,0.00,,---,0.22,VWS V14.01,2013-07-22 02:11:00,
2013-07-21 21:26:00,77.1,71.9,29.74,East,84,0.0,5.0,84,0.00,,---,0.22,VWS V14.01,2013-07-22 02:26:00,
2013-07-21 21:41:00,76.7,72.2,29.75,East,80,1.0,6.0,86,0.00,,---,0.22,VWS V14.01,2013-07-22 02:41:00,
2013-07-21 21:56:00,76.2,72.4,29.75,SE,134,2.0,7.0,88,0.00,,---,0.22,VWS V14.01,2013-07-22 02:56:00,
2013-07-21 22:11:00,75.8,72.3,29.75,East,94,1.0,5.0,89,0.00,,---,0.22,VWS V14.01,2013-07-22 03:11:00,
2013-07-21 22:26:00,75.5,72.0,29.75,East,94,1.0,6.0,89,0.00,,---,0.22,VWS V14.01,2013-07-22 03:26:00,
2013-07-21 22:41:00,75.1,72.0,29.75,SE,140,5.0,7.0,90,0.00,,---,0.22,VWS V14.01,2013-07-22 03:41:00,
2013-07-21 22:56:00,74.8,72.0,29.75,ESE,118,5.0,11.0,91,0.00,,---,0.22,VWS V14.01,2013-07-22 03:56:00,
2013-07-21 23:11:00,74.6,71.8,29.75,ENE,69,0.0,8.0,91,0.00,,---,0.22,VWS V14.01,2013-07-22 04:11:00,
2013-07-21 23:26:00,74.3,71.8,29.76,SE,138,1.0,7.0,92,0.00,,---,0.22,VWS V14.01,2013-07-22 04:26:00,
2013-07-21 23:41:00,74.0,71.5,29.76,SE,128,0.0,5.0,92,0.00,,---,0.22,VWS V14.01,2013-07-22 04:41:00,
2013-07-21 23:56:00,73.9,71.4,29.77,SE,128,0.0,4.0,92,0.00,,---,0.00,VWS V14.01,2013-07-22 04:56:00,